Terminal Aerodrome Forecast
Issued by NWS

Current Version | Previous Version | Graphics & Text | Print | Product List | Glossary On
Versions: 1 2 3 4 5 6 7 8 9 10 11 12 13 14 15 16 17 18
307
FTUS41 KILN 152340
TAFLCK
TAF
KLCK 152340Z 1600/1624 26005KT P6SM SCT050
     FM160200 VRB03KT P6SM SCT250
     FM160800 00000KT 4SM BR SCT250
     FM161000 00000KT 1SM BR SCT015
     FM161300 16006KT P6SM BKN040=

USA.gov is the U.S. government's official web portal to all federal, state and local government web resources and services.